WFDK1: Walnut River, Winfield, KS

Data processed at Fri Jun 21 2019 23:50


All information presented herein is the property of the government of the United States of America and may be revised or deleted at any time without prior notice.
Dissemination of this information without the expressed written consent of the Public Affairs Office, Tulsa District U.S. Army Corps of Engineers is strictly prohibited.
These data are gathered electronically and, as presented, have not undergone any form of quality control. These data are not guaranteed to be valid or correct.
Go to home page.
Go to station list.
Go to home page.

Upstream stations:

Downstream station:
Previous Day
Next Day
Current Day
    
SHEF ID:       WFDK1     WALNUT R AT WINFIELD, KS
STATION TYPE:  
Regulating: Stage =    18.00, Flow =    17822

               PRECIP     STAGE  STAGE(2)  RIV-FLOW  BAT-LOAD
                   in        ft        ft       cfs      volt
              Ccp-Rev   Ccp-Rev   Ccp-Rev   Ccp-Rev   Ccp-Rev
(US/Central)
06/21 00:00      0.00     10.18      ----      7566     12.65
06/21 01:00      0.00      9.91      ----      7255     12.65
06/21 02:00      0.00      9.63      ----      6937     12.65
06/21 03:00      0.00      9.44      ----      6723     12.65
06/21 04:00      0.00      9.18      ----      6434     12.57
06/21 05:00      0.00      9.04      ----      6279     12.57
06/21 06:00      0.00      8.85      ----      6071     12.57
06/21 07:00      0.00      8.71      ----      5919     12.57
06/21 08:00      0.00      8.56      ----      5757     12.57
06/21 09:00      0.00      8.43      ----      5617     12.65
06/21 10:00      0.00      8.31      ----      5489     12.81
06/21 11:00      0.00      8.15      ----      5320     13.13
06/21 12:00      0.00      8.06      ----      5226     13.21
06/21 13:00      0.00      7.93      ----      5090     13.21
06/21 14:00      0.00      7.85      ----      5007     13.05
06/21 15:00      0.00      7.75      ----      4903     12.97
06/21 16:00      0.00      7.66      ----      4811     12.89
06/21 17:00      0.00      7.57      ----      4718     12.89
06/21 18:00      0.00      7.49      ----      4637     12.89
06/21 19:00      0.00      7.41      ----      4556     12.73
06/21 20:00      0.00      7.33      ----      4475     12.73
06/21 21:00      0.00      7.27      ----      4415     12.65
06/21 22:00      0.00      7.19      ----      4335     12.65
06/21 23:00      0.00      7.13      ----      4275     12.65